createdAt,value
2019-03-28T00:00:13.310Z,99.99
2019-03-28T00:01:13.286Z,99.99
2019-03-28T00:02:13.271Z,99.99
2019-03-28T00:03:13.245Z,99.99
2019-03-28T00:04:13.233Z,99.99
2019-03-28T00:05:13.201Z,99.99
2019-03-28T00:06:13.179Z,99.99
2019-03-28T00:07:13.156Z,99.99
2019-03-28T00:08:13.133Z,99.99
2019-03-28T00:09:13.122Z,99.99
2019-03-28T00:10:13.090Z,99.99
2019-03-28T00:11:13.075Z,99.99
2019-03-28T00:12:13.044Z,99.99
2019-03-28T00:13:13.022Z,99.99
2019-03-28T00:14:13.003Z,99.99
2019-03-28T00:15:12.983Z,99.99
2019-03-28T00:16:12.965Z,99.99
2019-03-28T00:17:12.948Z,99.99
2019-03-28T00:18:12.925Z,99.99
2019-03-28T00:19:12.891Z,99.99
2019-03-28T00:20:12.868Z,99.99
2019-03-28T00:21:12.849Z,99.99
2019-03-28T00:22:12.830Z,99.99
2019-03-28T00:23:12.804Z,99.99
2019-03-28T00:24:12.782Z,99.99
2019-03-28T00:25:13.064Z,99.99
2019-03-28T00:26:12.737Z,99.99
2019-03-28T00:27:12.714Z,99.99
2019-03-28T00:28:12.694Z,99.99
2019-03-28T00:29:12.671Z,99.99
2019-03-28T00:30:12.655Z,99.99
2019-03-28T00:31:12.627Z,99.99
2019-03-28T00:32:12.603Z,99.99
2019-03-28T00:33:12.583Z,99.99
2019-03-28T00:34:12.577Z,99.99
2019-03-28T00:35:12.538Z,99.99
2019-03-28T00:36:12.517Z,99.99
2019-03-28T00:37:12.500Z,99.99
2019-03-28T00:38:12.483Z,99.99
2019-03-28T00:39:12.452Z,99.99
2019-03-28T00:40:12.437Z,99.99
2019-03-28T00:41:12.407Z,99.99
2019-03-28T00:42:12.385Z,99.99
2019-03-28T00:43:12.363Z,99.99
2019-03-28T00:44:12.349Z,99.99
2019-03-28T00:45:12.318Z,99.99
2019-03-28T00:46:12.299Z,99.99
2019-03-28T00:47:12.283Z,99.99
2019-03-28T00:48:12.257Z,99.99
2019-03-28T00:49:12.236Z,99.99
2019-03-28T00:50:12.213Z,99.99
2019-03-28T00:51:12.188Z,99.99
2019-03-28T00:52:12.166Z,99.99
2019-03-28T00:53:12.145Z,99.99
2019-03-28T00:54:12.124Z,99.99
2019-03-28T00:55:12.104Z,99.99
2019-03-28T00:56:12.075Z,99.99
2019-03-28T00:57:12.056Z,99.99
2019-03-28T00:58:12.036Z,99.99
2019-03-28T00:59:12.009Z,99.99
2019-03-28T01:00:11.989Z,99.99
2019-03-28T01:01:11.967Z,99.99
2019-03-28T01:02:11.945Z,99.99
2019-03-28T01:03:11.922Z,99.99
2019-03-28T01:04:11.902Z,99.99
2019-03-28T01:05:11.878Z,99.99
2019-03-28T01:06:11.854Z,99.99
2019-03-28T01:07:11.835Z,99.99
2019-03-28T01:08:12.203Z,99.99
2019-03-28T01:09:11.790Z,99.99
2019-03-28T01:10:11.769Z,99.99
2019-03-28T01:11:12.145Z,99.99
2019-03-28T01:12:11.724Z,99.99
2019-03-28T01:13:11.709Z,99.99
2019-03-28T01:14:11.680Z,99.99
2019-03-28T01:15:11.657Z,99.99
2019-03-28T01:16:11.639Z,99.99
2019-03-28T01:17:11.619Z,99.99
2019-03-28T01:18:11.591Z,99.99
2019-03-28T01:19:11.568Z,99.99
2019-03-28T01:20:11.545Z,99.99
2019-03-28T01:21:11.524Z,99.99
2019-03-28T01:22:11.503Z,99.99
2019-03-28T01:23:11.490Z,99.99
2019-03-28T01:24:11.456Z,99.99
2019-03-28T01:25:11.438Z,99.99
2019-03-28T01:26:11.414Z,99.99
2019-03-28T01:27:11.398Z,99.99
2019-03-28T01:28:11.370Z,99.99
2019-03-28T01:29:11.349Z,99.99
2019-03-28T01:30:11.325Z,99.99
2019-03-28T01:31:11.304Z,99.99
2019-03-28T01:32:11.295Z,99.99
2019-03-28T01:33:11.268Z,99.99
2019-03-28T01:34:11.237Z,99.99
2019-03-28T01:35:11.218Z,99.99
2019-03-28T01:36:11.192Z,99.99
2019-03-28T01:37:11.171Z,99.99
2019-03-28T01:38:11.150Z,99.99
2019-03-28T01:39:11.127Z,99.99
2019-03-28T01:40:11.110Z,99.99
2019-03-28T01:41:11.081Z,99.99
2019-03-28T01:42:11.061Z,99.99
2019-03-28T01:43:11.050Z,99.99
2019-03-28T01:44:11.031Z,99.99
2019-03-28T01:45:10.996Z,99.99
2019-03-28T01:46:10.973Z,99.99
2019-03-28T01:47:10.951Z,99.99
2019-03-28T01:48:10.927Z,99.99
2019-03-28T01:49:10.913Z,99.99
2019-03-28T01:50:10.884Z,99.99
2019-03-28T01:51:10.860Z,99.99
2019-03-28T01:52:10.848Z,99.99
2019-03-28T01:53:10.818Z,99.99
2019-03-28T01:54:10.795Z,99.99
2019-03-28T01:55:10.772Z,99.99
2019-03-28T01:56:11.279Z,99.99
2019-03-28T01:57:12.176Z,99.99
2019-03-28T01:58:10.708Z,99.99
2019-03-28T01:59:10.685Z,99.99
2019-03-28T02:00:10.661Z,99.99
2019-03-28T02:01:10.640Z,99.99
2019-03-28T02:02:10.618Z,99.99
2019-03-28T02:03:11.265Z,99.99
2019-03-28T02:04:10.573Z,99.99
2019-03-28T02:05:10.551Z,99.99
2019-03-28T02:06:10.533Z,99.99
2019-03-28T02:07:10.508Z,99.99
2019-03-28T02:08:10.486Z,99.99
2019-03-28T02:09:10.467Z,99.99
2019-03-28T02:10:10.441Z,99.99
2019-03-28T02:11:10.427Z,99.99
2019-03-28T02:12:10.397Z,99.99
2019-03-28T02:13:10.375Z,99.99
2019-03-28T02:14:10.353Z,99.99
2019-03-28T02:15:10.332Z,99.99
2019-03-28T02:16:10.314Z,99.99
2019-03-28T02:17:10.286Z,99.99
2019-03-28T02:18:10.348Z,99.99
2019-03-28T02:19:10.244Z,99.99
2019-03-28T02:20:10.418Z,99.99
2019-03-28T02:21:10.198Z,99.99
2019-03-28T02:22:10.176Z,99.99
2019-03-28T02:23:10.469Z,99.99
2019-03-28T02:24:10.135Z,99.99
2019-03-28T02:25:10.118Z,99.99
2019-03-28T02:26:10.088Z,99.99
2019-03-28T02:27:23.025Z,99.99
2019-03-28T02:28:10.044Z,99.99
2019-03-28T02:29:10.025Z,99.99
2019-03-28T02:30:10.002Z,99.99
2019-03-28T02:31:09.979Z,99.99
2019-03-28T02:32:09.956Z,99.99
2019-03-28T02:33:09.934Z,99.99
2019-03-28T02:34:09.913Z,99.99
2019-03-28T02:35:09.893Z,99.99
2019-03-28T02:36:09.870Z,99.99
2019-03-28T02:37:09.848Z,99.99
2019-03-28T02:38:09.825Z,99.99
2019-03-28T02:39:09.807Z,99.99
2019-03-28T02:40:09.781Z,99.99
2019-03-28T02:41:09.758Z,99.99
2019-03-28T02:42:09.736Z,99.99
2019-03-28T02:43:09.718Z,99.99
2019-03-28T02:44:09.691Z,99.99
2019-03-28T02:45:09.677Z,99.99
2019-03-28T02:46:09.657Z,99.99
2019-03-28T02:47:09.626Z,99.99
2019-03-28T02:48:09.607Z,99.99
2019-03-28T02:49:09.584Z,99.99
2019-03-28T02:50:09.559Z,99.99
2019-03-28T02:51:09.537Z,99.99
2019-03-28T02:52:09.530Z,99.99
2019-03-28T02:53:09.510Z,99.99
2019-03-28T02:54:09.472Z,99.99
2019-03-28T02:55:09.449Z,99.99
2019-03-28T02:56:09.434Z,99.99
2019-03-28T02:57:09.404Z,99.99
2019-03-28T02:58:10.786Z,99.99
2019-03-28T02:59:09.360Z,99.99
2019-03-28T03:00:09.344Z,99.99
2019-03-28T03:01:09.449Z,99.99
2019-03-28T03:02:09.295Z,99.99
2019-03-28T03:03:09.274Z,99.99
2019-03-28T03:04:09.395Z,99.99
2019-03-28T03:05:09.247Z,99.99
2019-03-28T03:06:09.205Z,99.99
2019-03-28T03:07:09.197Z,99.99
2019-03-28T03:08:09.172Z,99.99
2019-03-28T03:09:09.142Z,99.99
2019-03-28T03:10:09.121Z,99.99
2019-03-28T03:11:09.680Z,99.99
2019-03-28T03:12:09.074Z,99.99
2019-03-28T03:13:09.053Z,99.99
2019-03-28T03:14:09.037Z,99.99
2019-03-28T03:15:09.012Z,99.99
2019-03-28T03:16:08.987Z,99.99
2019-03-28T03:17:08.963Z,99.99
2019-03-28T03:18:08.944Z,99.99
2019-03-28T03:19:08.918Z,99.99
2019-03-28T03:20:08.897Z,99.99
2019-03-28T03:21:09.841Z,99.99
2019-03-28T03:22:08.859Z,99.99
2019-03-28T03:23:08.842Z,99.99
2019-03-28T03:24:08.811Z,99.99
2019-03-28T03:25:08.788Z,99.99
2019-03-28T03:26:08.773Z,99.99
2019-03-28T03:27:08.741Z,99.99
2019-03-28T03:28:08.719Z,99.99
2019-03-28T03:29:08.696Z,99.99
2019-03-28T03:30:08.675Z,99.99
2019-03-28T03:31:08.650Z,99.99
2019-03-28T03:32:08.629Z,99.99
2019-03-28T03:33:09.200Z,99.99
2019-03-28T03:34:08.587Z,99.99
2019-03-28T03:35:08.571Z,99.99
2019-03-28T03:36:08.556Z,99.99
2019-03-28T03:37:08.521Z,99.99
2019-03-28T03:38:08.495Z,99.99
2019-03-28T03:39:08.474Z,99.99
2019-03-28T03:40:08.471Z,99.99
2019-03-28T03:41:08.435Z,99.99
2019-03-28T03:42:08.458Z,99.99
2019-03-28T03:43:08.390Z,99.99
2019-03-28T03:44:08.377Z,99.99
2019-03-28T03:45:09.337Z,99.99
2019-03-28T03:46:08.319Z,99.99
2019-03-28T03:47:08.300Z,99.99
2019-03-28T03:48:08.275Z,99.99
2019-03-28T03:49:08.252Z,99.99
2019-03-28T03:50:08.228Z,99.99
2019-03-28T03:51:08.210Z,99.99
2019-03-28T03:52:08.185Z,99.99
2019-03-28T03:53:08.177Z,99.99
2019-03-28T03:54:08.151Z,99.99
2019-03-28T03:55:08.121Z,99.99
2019-03-28T03:56:08.106Z,99.99
2019-03-28T03:57:08.073Z,99.99
2019-03-28T03:58:16.190Z,99.99
2019-03-28T03:59:08.029Z,99.99
2019-03-28T04:00:08.018Z,99.99
2019-03-28T04:01:07.985Z,99.99
2019-03-28T04:02:07.963Z,99.99
2019-03-28T04:03:07.947Z,99.99
2019-03-28T04:04:07.919Z,99.99
2019-03-28T04:05:07.897Z,99.99
2019-03-28T04:06:07.883Z,99.99
2019-03-28T04:07:07.970Z,99.99
2019-03-28T04:08:07.829Z,99.99
2019-03-28T04:09:07.829Z,99.99
2019-03-28T04:10:07.787Z,99.99
2019-03-28T04:11:07.767Z,99.99
2019-03-28T04:12:07.741Z,99.99
2019-03-28T04:13:07.724Z,99.99
2019-03-28T04:14:07.701Z,99.99
2019-03-28T04:15:07.684Z,99.99
2019-03-28T04:16:07.654Z,99.99
2019-03-28T04:17:07.634Z,99.99
2019-03-28T04:18:07.613Z,99.99
2019-03-28T04:19:07.596Z,99.99
2019-03-28T04:20:07.567Z,99.99
2019-03-28T04:21:07.543Z,99.99
2019-03-28T04:22:07.519Z,99.99
2019-03-28T04:23:07.500Z,99.99
2019-03-28T04:24:07.477Z,99.99
2019-03-28T04:25:07.457Z,99.99
2019-03-28T04:26:07.433Z,99.99
2019-03-28T04:27:07.414Z,99.99
2019-03-28T04:28:07.388Z,99.99
2019-03-28T04:29:07.368Z,99.99
2019-03-28T04:30:07.349Z,99.99
2019-03-28T04:31:07.323Z,99.99
2019-03-28T04:32:07.300Z,99.99
2019-03-28T04:33:07.280Z,99.99
2019-03-28T04:34:08.763Z,99.99
2019-03-28T04:35:07.246Z,99.99
2019-03-28T04:36:07.209Z,99.99
2019-03-28T04:37:07.187Z,99.99
2019-03-28T04:38:07.164Z,99.99
2019-03-28T04:39:07.147Z,99.99
2019-03-28T04:40:07.140Z,99.99
2019-03-28T04:41:07.101Z,99.99
2019-03-28T04:42:07.086Z,99.99
2019-03-28T04:43:07.057Z,99.99
2019-03-28T04:44:07.048Z,99.99
2019-03-28T04:45:07.012Z,99.99
2019-03-28T04:46:06.985Z,99.99
2019-03-28T04:47:06.966Z,99.99
2019-03-28T04:48:06.951Z,99.99
2019-03-28T04:49:06.922Z,99.99
2019-03-28T04:50:06.899Z,99.99
2019-03-28T04:51:06.877Z,99.99
2019-03-28T04:52:06.854Z,99.99
2019-03-28T04:53:06.831Z,99.99
2019-03-28T04:54:09.718Z,99.99
2019-03-28T04:55:06.787Z,99.99
2019-03-28T04:56:06.767Z,99.99
2019-03-28T04:57:06.743Z,99.99
2019-03-28T04:58:06.722Z,99.99
2019-03-28T04:59:06.699Z,99.99
2019-03-28T05:00:07.352Z,99.99
2019-03-28T05:01:06.664Z,99.99
2019-03-28T05:02:06.634Z,99.99
2019-03-28T05:03:06.612Z,99.99
2019-03-28T05:04:06.591Z,99.99
2019-03-28T05:05:06.666Z,99.99
2019-03-28T05:06:06.543Z,99.99
2019-03-28T05:07:06.521Z,99.99
2019-03-28T05:08:06.497Z,99.99
2019-03-28T05:09:06.476Z,99.99
2019-03-28T05:10:06.455Z,99.99
2019-03-28T05:11:07.306Z,99.99
2019-03-28T05:12:06.416Z,99.99
2019-03-28T05:13:06.388Z,99.99
2019-03-28T05:14:06.364Z,99.99
2019-03-28T05:15:06.347Z,99.99
2019-03-28T05:16:06.323Z,99.99
2019-03-28T05:17:06.333Z,99.99
2019-03-28T05:18:06.432Z,99.99
2019-03-28T05:19:06.253Z,99.99
2019-03-28T05:20:06.232Z,99.99
2019-03-28T05:21:06.362Z,99.99
2019-03-28T05:22:06.187Z,99.99
2019-03-28T05:23:06.167Z,99.99
2019-03-28T05:24:06.450Z,99.99
2019-03-28T05:25:06.119Z,99.99
2019-03-28T05:26:06.098Z,99.99
2019-03-28T05:27:06.075Z,99.99
2019-03-28T05:28:06.053Z,99.99
2019-03-28T05:29:06.031Z,99.99
2019-03-28T05:30:06.688Z,99.99
2019-03-28T05:31:05.990Z,99.99
2019-03-28T05:32:05.975Z,99.99
2019-03-28T05:33:05.940Z,99.99
2019-03-28T05:34:05.921Z,99.99
2019-03-28T05:35:05.902Z,99.99
2019-03-28T05:36:05.874Z,99.99
2019-03-28T05:37:05.852Z,99.99
2019-03-28T05:38:05.829Z,99.99
2019-03-28T05:39:05.812Z,99.99
2019-03-28T05:40:05.788Z,99.99
2019-03-28T05:41:05.761Z,99.99
2019-03-28T05:42:05.796Z,99.99
2019-03-28T05:43:05.719Z,99.99
2019-03-28T05:44:05.698Z,99.99
2019-03-28T05:45:05.674Z,99.99
2019-03-28T05:46:05.656Z,99.99
2019-03-28T05:47:05.630Z,99.99
2019-03-28T05:48:05.607Z,99.99
2019-03-28T05:49:05.583Z,99.99
2019-03-28T05:50:05.568Z,99.99
2019-03-28T05:51:05.541Z,99.99
2019-03-28T05:52:05.518Z,99.99
2019-03-28T05:53:05.502Z,99.99
2019-03-28T05:54:05.484Z,99.99
2019-03-28T05:55:05.645Z,99.99
2019-03-28T05:56:05.431Z,99.99
2019-03-28T05:57:05.405Z,99.99
2019-03-28T05:58:05.385Z,99.99
2019-03-28T05:59:10.639Z,99.99
2019-03-28T06:00:05.343Z,99.99
2019-03-28T06:01:05.928Z,99.99
2019-03-28T06:02:05.296Z,99.99
2019-03-28T06:03:05.275Z,99.99
2019-03-28T06:04:05.259Z,99.99
2019-03-28T06:05:05.232Z,99.99
2019-03-28T06:06:05.209Z,99.99
2019-03-28T06:07:05.186Z,99.99
2019-03-28T06:08:05.164Z,99.99
2019-03-28T06:09:05.143Z,99.99
2019-03-28T06:10:05.126Z,99.99
2019-03-28T06:11:05.096Z,99.99
2019-03-28T06:12:05.074Z,99.99
2019-03-28T06:13:05.051Z,99.99
2019-03-28T06:14:05.037Z,99.99
2019-03-28T06:15:05.006Z,99.99
2019-03-28T06:16:05.032Z,99.99
2019-03-28T06:17:04.964Z,99.99
2019-03-28T06:18:04.947Z,99.99
2019-03-28T06:19:04.922Z,99.99
2019-03-28T06:20:04.894Z,99.99
2019-03-28T06:21:04.874Z,99.99
2019-03-28T06:22:04.850Z,99.99
2019-03-28T06:23:04.830Z,99.99
2019-03-28T06:24:05.355Z,99.99
2019-03-28T06:25:05.972Z,99.99
2019-03-28T06:26:04.762Z,99.99
2019-03-28T06:27:04.737Z,99.99
2019-03-28T06:28:04.714Z,99.99
2019-03-28T06:29:04.697Z,99.99
2019-03-28T06:30:04.673Z,99.99
2019-03-28T06:31:04.650Z,99.99
2019-03-28T06:32:04.639Z,99.99
2019-03-28T06:33:04.605Z,99.99
2019-03-28T06:34:04.599Z,99.99
2019-03-28T06:35:04.562Z,99.99
2019-03-28T06:36:04.610Z,99.99
2019-03-28T06:37:04.516Z,99.99
2019-03-28T06:38:04.500Z,99.99
2019-03-28T06:39:04.488Z,99.99
2019-03-28T06:40:05.506Z,99.99
2019-03-28T06:41:04.425Z,99.99
2019-03-28T06:42:04.405Z,99.99
2019-03-28T06:43:04.388Z,99.99
2019-03-28T06:44:04.366Z,99.99
2019-03-28T06:45:04.339Z,99.99
2019-03-28T06:46:04.325Z,99.99
2019-03-28T06:47:04.295Z,99.99
2019-03-28T06:48:04.274Z,99.99
2019-03-28T06:49:04.254Z,99.99
2019-03-28T06:50:04.226Z,99.99
2019-03-28T06:51:04.204Z,99.99
2019-03-28T06:52:04.184Z,99.99
2019-03-28T06:53:04.161Z,99.99
2019-03-28T06:54:04.505Z,99.99
2019-03-28T06:55:04.120Z,99.99
2019-03-28T06:56:04.094Z,99.99
2019-03-28T06:57:04.071Z,99.99
2019-03-28T06:58:04.049Z,99.99
2019-03-28T06:59:04.037Z,99.99
2019-03-28T07:00:04.006Z,99.99
2019-03-28T07:01:03.982Z,99.99
2019-03-28T07:02:03.961Z,99.99
2019-03-28T07:03:03.947Z,99.99
2019-03-28T07:04:04.472Z,99.99
2019-03-28T07:05:03.897Z,99.99
2019-03-28T07:06:03.873Z,99.99
2019-03-28T07:07:03.852Z,99.99
2019-03-28T07:08:03.829Z,99.99
2019-03-28T07:09:03.806Z,99.99
2019-03-28T07:10:03.787Z,99.99
2019-03-28T07:11:03.763Z,99.99
2019-03-28T07:12:03.741Z,99.99
2019-03-28T07:13:03.717Z,99.99
2019-03-28T07:14:03.696Z,99.99
2019-03-28T07:15:03.674Z,99.99
2019-03-28T07:16:03.650Z,99.99
2019-03-28T07:17:03.642Z,99.99
2019-03-28T07:18:03.606Z,99.99
2019-03-28T07:19:03.586Z,99.99
2019-03-28T07:20:03.682Z,99.99
2019-03-28T07:21:03.541Z,99.99
2019-03-28T07:22:03.522Z,99.99
2019-03-28T07:23:03.498Z,99.99
2019-03-28T07:24:03.474Z,99.99
2019-03-28T07:25:03.454Z,99.99
2019-03-28T07:26:03.430Z,99.99
2019-03-28T07:27:03.409Z,99.99
2019-03-28T07:28:06.235Z,99.99
2019-03-28T07:29:03.363Z,99.99
2019-03-28T07:30:03.342Z,99.99
2019-03-28T07:31:03.319Z,99.99
2019-03-28T07:32:03.295Z,99.99
2019-03-28T07:33:03.283Z,99.99
2019-03-28T07:34:03.250Z,99.99
2019-03-28T07:35:03.231Z,99.99
2019-03-28T07:36:03.209Z,99.99
2019-03-28T07:37:03.183Z,99.99
2019-03-28T07:38:03.197Z,99.99
2019-03-28T07:39:03.141Z,99.99
2019-03-28T07:40:03.122Z,99.99
2019-03-28T07:41:03.100Z,99.99
2019-03-28T07:42:03.073Z,99.99
2019-03-28T07:43:03.050Z,99.99
2019-03-28T07:44:03.027Z,99.99
2019-03-28T07:45:03.008Z,99.99
2019-03-28T07:46:02.983Z,99.99
2019-03-28T07:47:02.986Z,99.99
2019-03-28T07:48:02.947Z,99.99
2019-03-28T07:49:02.925Z,99.99
2019-03-28T07:50:02.898Z,99.99
2019-03-28T07:51:02.878Z,99.99
2019-03-28T07:52:02.862Z,99.99
2019-03-28T07:53:02.832Z,99.99
2019-03-28T07:54:02.814Z,99.99
2019-03-28T07:55:02.790Z,99.99
2019-03-28T07:56:02.764Z,99.99
2019-03-28T07:57:02.743Z,99.99
2019-03-28T07:58:02.721Z,99.99
2019-03-28T07:59:02.702Z,99.99
2019-03-28T08:00:04.380Z,99.99
2019-03-28T08:01:02.654Z,99.99
2019-03-28T08:02:02.632Z,99.99
2019-03-28T08:03:02.619Z,99.99
2019-03-28T08:04:02.589Z,99.99
2019-03-28T08:05:02.563Z,99.99
2019-03-28T08:06:02.559Z,99.99
2019-03-28T08:07:02.521Z,99.99
2019-03-28T08:08:02.498Z,99.99
2019-03-28T08:09:02.480Z,99.99
2019-03-28T08:10:02.456Z,99.99
2019-03-28T08:11:02.439Z,99.99
2019-03-28T08:12:02.418Z,99.99
2019-03-28T08:13:02.394Z,99.99
2019-03-28T08:14:02.366Z,99.99
2019-03-28T08:15:02.353Z,99.99
2019-03-28T08:16:02.325Z,99.99
2019-03-28T08:17:02.307Z,99.99
2019-03-28T08:18:02.281Z,99.99
2019-03-28T08:19:02.258Z,99.99
2019-03-28T08:20:02.348Z,99.99
2019-03-28T08:21:02.214Z,99.99
2019-03-28T08:22:02.259Z,99.99
2019-03-28T08:23:02.170Z,99.99
2019-03-28T08:24:02.214Z,99.99
2019-03-28T08:25:02.131Z,99.99
2019-03-28T08:26:02.106Z,99.99
2019-03-28T08:27:02.081Z,99.99
2019-03-28T08:28:02.064Z,99.79
2019-03-28T08:29:02.039Z,99.98
2019-03-28T08:30:02.023Z,99.60
2019-03-28T08:31:01.995Z,99.84
2019-03-28T08:32:01.971Z,99.99
2019-03-28T08:33:01.962Z,99.65
2019-03-28T08:34:02.123Z,99.37
2019-03-28T08:35:01.909Z,99.37
2019-03-28T08:36:01.885Z,98.70
2019-03-28T08:37:01.869Z,98.22
2019-03-28T08:38:01.842Z,98.13
2019-03-28T08:39:01.828Z,97.84
2019-03-28T08:40:01.802Z,97.84
2019-03-28T08:41:01.786Z,96.60
2019-03-28T08:42:01.759Z,95.84
2019-03-28T08:43:01.735Z,95.65
2019-03-28T08:44:01.711Z,96.41
2019-03-28T08:45:01.694Z,95.17
2019-03-28T08:46:01.672Z,95.17
2019-03-28T08:47:01.651Z,95.75
2019-03-28T08:48:01.627Z,95.98
2019-03-28T08:49:01.613Z,95.98
2019-03-28T08:50:01.591Z,94.65
2019-03-28T08:51:01.566Z,95.41
2019-03-28T08:52:01.550Z,95.51
2019-03-28T08:53:01.525Z,94.17
2019-03-28T08:54:01.501Z,94.08
2019-03-28T08:55:01.477Z,94.17
2019-03-28T08:56:01.461Z,92.74
2019-03-28T08:57:01.435Z,92.27
2019-03-28T08:58:01.421Z,91.98
2019-03-28T08:59:01.390Z,91.13
2019-03-28T09:00:01.370Z,91.50
2019-03-28T09:01:01.363Z,91.31
2019-03-28T09:02:01.326Z,91.03
2019-03-28T09:03:01.306Z,91.79
2019-03-28T09:04:01.355Z,91.98
2019-03-28T09:05:01.264Z,93.32
2019-03-28T09:06:01.241Z,90.74
2019-03-28T09:07:01.221Z,89.79
2019-03-28T09:08:01.218Z,89.79
2019-03-28T09:09:01.178Z,90.45
2019-03-28T09:10:01.157Z,91.13
2019-03-28T09:11:01.137Z,91.03
2019-03-28T09:12:01.118Z,91.69
2019-03-28T09:13:01.101Z,90.69
2019-03-28T09:14:01.073Z,88.74
2019-03-28T09:15:01.059Z,88.45
2019-03-28T09:16:01.028Z,88.74
2019-03-28T09:17:01.014Z,88.45
2019-03-28T09:18:00.992Z,88.74
2019-03-28T09:19:00.968Z,89.40
2019-03-28T09:20:00.950Z,89.50
2019-03-28T09:21:00.925Z,90.59
2019-03-28T09:22:01.027Z,90.50
2019-03-28T09:23:00.884Z,90.59
2019-03-28T09:24:00.870Z,89.83
2019-03-28T09:25:00.839Z,88.78
2019-03-28T09:26:04.121Z,89.74
2019-03-28T09:27:00.799Z,89.45
2019-03-28T09:28:00.776Z,89.83
2019-03-28T09:29:00.761Z,90.31
2019-03-28T09:30:00.737Z,90.69
2019-03-28T09:31:00.715Z,90.50
2019-03-28T09:32:00.693Z,90.31
2019-03-28T09:33:00.684Z,90.50
2019-03-28T09:34:00.652Z,90.03
2019-03-28T09:35:00.631Z,88.88
2019-03-28T09:36:00.615Z,88.31
2019-03-28T09:37:00.596Z,88.88
2019-03-28T09:38:00.574Z,87.93
2019-03-28T09:39:00.550Z,89.17
2019-03-28T09:40:00.536Z,89.64
2019-03-28T09:41:00.505Z,89.64
2019-03-28T09:42:00.504Z,88.59
2019-03-28T09:43:00.463Z,87.45
2019-03-28T09:44:00.447Z,86.40
2019-03-28T09:45:00.422Z,87.26
2019-03-28T09:46:01.402Z,86.98
2019-03-28T09:47:00.388Z,87.83
2019-03-28T09:48:00.365Z,87.64
2019-03-28T09:49:00.466Z,87.26
2019-03-28T09:50:00.427Z,87.35
2019-03-28T09:51:00.618Z,86.59
2019-03-28T09:52:00.278Z,87.45
2019-03-28T09:53:00.800Z,87.35
2019-03-28T09:54:00.248Z,85.06
2019-03-28T09:55:00.407Z,85.73
2019-03-28T09:56:00.206Z,86.30
2019-03-28T09:57:00.174Z,86.88
2019-03-28T09:58:00.157Z,87.16
2019-03-28T09:59:00.548Z,88.31
2019-03-28T10:00:00.175Z,87.93
2019-03-28T10:01:03.224Z,85.45
2019-03-28T10:02:01.200Z,86.21
2019-03-28T10:03:00.050Z,85.64
2019-03-28T10:04:00.025Z,86.78
2019-03-28T10:05:00.004Z,87.93
2019-03-28T10:05:59.983Z,86.59
2019-03-28T10:06:59.963Z,85.16
2019-03-28T10:07:59.944Z,84.88
2019-03-28T10:08:59.914Z,85.25
2019-03-28T10:10:00.580Z,82.40
2019-03-28T10:10:59.894Z,83.35
2019-03-28T10:11:59.859Z,84.30
2019-03-28T10:12:59.833Z,83.54
2019-03-28T10:13:59.812Z,82.97
2019-03-28T10:14:59.793Z,82.20
2019-03-28T10:15:59.767Z,81.63
2019-03-28T10:16:59.747Z,81.35
2019-03-28T10:17:59.725Z,84.20
2019-03-28T10:18:59.709Z,84.69
2019-03-28T10:19:59.690Z,85.16
2019-03-28T10:20:59.664Z,85.64
2019-03-28T10:21:59.640Z,86.49
2019-03-28T10:22:59.621Z,84.97
2019-03-28T10:23:59.599Z,83.92
2019-03-28T10:24:59.582Z,83.92
2019-03-28T10:25:59.563Z,83.64
2019-03-28T10:26:59.536Z,83.25
2019-03-28T10:27:59.521Z,83.83
2019-03-28T10:28:59.499Z,83.92
2019-03-28T10:29:59.475Z,83.06
2019-03-28T10:30:59.450Z,83.54
2019-03-28T10:31:59.430Z,83.64
2019-03-28T10:32:59.422Z,82.11
2019-03-28T10:33:59.388Z,81.44
2019-03-28T10:34:59.367Z,81.82
2019-03-28T10:35:59.345Z,81.73
2019-03-28T10:36:59.330Z,81.73
2019-03-28T10:37:59.305Z,83.16
2019-03-28T10:38:59.291Z,83.64
2019-03-28T10:39:59.266Z,82.20
2019-03-28T10:40:59.243Z,82.01
2019-03-28T10:41:59.220Z,81.63
2019-03-28T10:42:59.199Z,82.59
2019-03-28T10:43:59.187Z,81.58
2019-03-28T10:44:59.157Z,81.73
2019-03-28T10:45:59.136Z,80.11
2019-03-28T10:46:59.116Z,79.19
2019-03-28T10:47:59.095Z,79.44
2019-03-28T10:48:59.073Z,81.44
2019-03-28T10:49:59.056Z,79.53
2019-03-28T10:50:59.031Z,78.86
2019-03-28T10:51:59.012Z,79.44
2019-03-28T10:52:58.994Z,78.52
2019-03-28T10:53:58.991Z,79.67
2019-03-28T10:54:58.951Z,81.20
2019-03-28T10:55:58.927Z,80.33
2019-03-28T10:57:07.968Z,80.33
2019-03-28T10:57:58.890Z,80.05
2019-03-28T10:58:58.868Z,80.33
2019-03-28T10:59:58.843Z,82.63
2019-03-28T11:00:58.824Z,83.48
2019-03-28T11:01:58.803Z,82.82
2019-03-28T11:02:58.887Z,82.63
2019-03-28T11:03:58.759Z,82.15
2019-03-28T11:04:58.739Z,83.96
2019-03-28T11:05:58.722Z,83.67
2019-03-28T11:06:58.752Z,83.01
2019-03-28T11:07:58.676Z,83.77
2019-03-28T11:08:58.657Z,83.87
2019-03-28T11:09:58.634Z,83.48
2019-03-28T11:10:58.611Z,83.29
2019-03-28T11:11:58.591Z,83.48
2019-03-28T11:12:58.575Z,82.82
2019-03-28T11:13:58.550Z,82.34
2019-03-28T11:14:58.529Z,82.82
2019-03-28T11:15:58.509Z,84.53
2019-03-28T11:16:58.487Z,82.24
2019-03-28T11:17:58.466Z,79.48
2019-03-28T11:18:58.445Z,81.01
2019-03-28T11:19:58.431Z,81.96
2019-03-28T11:20:58.406Z,82.24
2019-03-28T11:21:58.384Z,82.82
2019-03-28T11:22:58.365Z,82.24
2019-03-28T11:23:58.660Z,83.67
2019-03-28T11:24:58.331Z,82.15
2019-03-28T11:25:58.301Z,80.91
2019-03-28T11:26:58.292Z,81.01
2019-03-28T11:27:58.281Z,81.67
2019-03-28T11:29:00.955Z,80.43
2019-03-28T11:29:58.220Z,81.01
2019-03-28T11:30:58.196Z,81.67
2019-03-28T11:31:58.174Z,82.24
2019-03-28T11:32:58.155Z,81.48
2019-03-28T11:33:58.134Z,79.67
2019-03-28T11:34:58.113Z,80.43
2019-03-28T11:35:58.094Z,82.43
2019-03-28T11:36:58.580Z,80.43
2019-03-28T11:37:58.055Z,80.33
2019-03-28T11:38:58.036Z,79.00
2019-03-28T11:39:58.015Z,77.38
2019-03-28T11:40:57.992Z,77.76
2019-03-28T11:42:00.444Z,78.23
2019-03-28T11:42:57.969Z,80.24
2019-03-28T11:43:57.945Z,81.20
2019-03-28T11:44:57.910Z,80.24
2019-03-28T11:45:57.887Z,79.77
2019-03-28T11:46:57.869Z,78.23
2019-03-28T11:47:57.861Z,78.62
2019-03-28T11:48:57.829Z,77.95
2019-03-28T11:49:57.809Z,78.33
2019-03-28T11:50:57.781Z,79.38
2019-03-28T11:51:57.760Z,80.62
2019-03-28T11:52:57.753Z,80.72
2019-03-28T11:53:57.732Z,80.15
2019-03-28T11:54:57.699Z,80.33
2019-03-28T11:55:57.685Z,80.53
2019-03-28T11:56:57.663Z,80.43
2019-03-28T11:57:57.637Z,79.57
2019-03-28T11:58:57.612Z,81.10
2019-03-28T11:59:58.097Z,81.29
2019-03-28T12:00:57.581Z,80.91
2019-03-28T12:02:00.482Z,81.67
2019-03-28T12:02:57.536Z,80.53
2019-03-28T12:03:57.507Z,81.10
2019-03-28T12:04:57.500Z,81.77
2019-03-28T12:05:57.470Z,81.01
2019-03-28T12:06:57.447Z,79.57
2019-03-28T12:07:57.426Z,78.33
2019-03-28T12:08:57.416Z,79.48
2019-03-28T12:09:57.384Z,78.43
2019-03-28T12:10:57.364Z,77.09
2019-03-28T12:11:57.351Z,76.90
2019-03-28T12:12:57.329Z,78.33
2019-03-28T12:13:59.701Z,79.57
2019-03-28T12:14:57.288Z,79.48
2019-03-28T12:15:57.255Z,79.28
2019-03-28T12:16:57.240Z,79.28
2019-03-28T12:17:57.216Z,79.57
2019-03-28T12:18:57.198Z,78.23
2019-03-28T12:19:57.192Z,79.67
2019-03-28T12:20:57.153Z,79.67
2019-03-28T12:21:57.134Z,79.77
2019-03-28T12:22:57.113Z,79.10
2019-03-28T12:23:57.089Z,78.33
2019-03-28T12:24:57.068Z,77.09
2019-03-28T12:25:57.051Z,76.81
2019-03-28T12:26:57.030Z,77.09
2019-03-28T12:28:00.194Z,76.14
2019-03-28T12:28:57.678Z,75.47
2019-03-28T12:29:56.975Z,75.85
2019-03-28T12:30:56.944Z,75.28
2019-03-28T12:31:56.925Z,74.61
2019-03-28T12:32:56.948Z,75.13
2019-03-28T12:33:56.888Z,76.37
2019-03-28T12:34:56.861Z,76.94
2019-03-28T12:35:56.840Z,76.14
2019-03-28T12:36:56.821Z,73.41
2019-03-28T12:37:56.799Z,73.28
2019-03-28T12:38:56.779Z,74.37
2019-03-28T12:39:59.839Z,74.52
2019-03-28T12:40:56.739Z,74.61
2019-03-28T12:41:56.716Z,73.03
2019-03-28T12:42:56.695Z,74.65
2019-03-28T12:43:56.679Z,74.13
2019-03-28T12:44:57.549Z,74.93
2019-03-28T12:45:56.631Z,74.80
2019-03-28T12:46:56.615Z,75.13
2019-03-28T12:47:56.591Z,75.70
2019-03-28T12:48:56.570Z,72.51
2019-03-28T12:49:56.549Z,72.80
2019-03-28T12:50:58.962Z,71.84
2019-03-28T12:51:56.514Z,70.89